createdAt,value
2019-06-08T00:02:22.938Z,77.80
2019-06-08T00:04:52.878Z,77.40
2019-06-08T00:07:23.930Z,76.70
2019-06-08T00:09:53.403Z,76.30
2019-06-08T00:12:23.289Z,76.20
2019-06-08T00:14:52.899Z,76.50
2019-06-08T00:17:35.719Z,76.70
2019-06-08T00:19:56.661Z,76.10
2019-06-08T00:22:26.110Z,75.70
2019-06-08T00:24:55.555Z,75.70
2019-06-08T00:27:25.021Z,75.90
2019-06-08T00:29:54.467Z,75.70
2019-06-08T00:32:25.155Z,75.40
2019-06-08T00:34:54.597Z,75.70
2019-06-08T00:37:24.989Z,75.70
2019-06-08T00:39:54.616Z,76.00
2019-06-08T00:42:25.432Z,76.20
2019-06-08T00:44:55.002Z,75.90
2019-06-08T00:47:24.748Z,76.00
2019-06-08T00:49:54.288Z,75.80
2019-06-08T00:52:35.877Z,75.70
2019-06-08T00:55:08.634Z,76.00
2019-06-08T00:57:38.166Z,75.50
2019-06-08T01:00:10.536Z,75.30
2019-06-08T01:02:40.116Z,75.30
2019-06-08T01:05:09.771Z,75.50
2019-06-08T01:07:39.196Z,75.70
2019-06-08T01:10:09.094Z,75.80
2019-06-08T01:12:38.586Z,75.50
2019-06-08T01:15:09.398Z,75.20
2019-06-08T01:17:39.120Z,75.10
2019-06-08T01:20:08.930Z,75.10
2019-06-08T01:22:38.874Z,75.10
2019-06-08T01:25:08.455Z,74.90
2019-06-08T01:27:37.927Z,74.90
2019-06-08T01:30:09.513Z,74.90
2019-06-08T01:32:39.229Z,75.00
2019-06-08T01:35:09.216Z,74.40
2019-06-08T01:37:38.684Z,74.30
2019-06-08T01:40:08.762Z,74.40
2019-06-08T01:42:38.286Z,74.40
2019-06-08T01:45:08.213Z,74.10
2019-06-08T01:47:37.644Z,74.40
2019-06-08T01:50:07.524Z,74.40
2019-06-08T01:52:37.970Z,74.60
2019-06-08T01:55:07.476Z,74.50
2019-06-08T01:57:36.929Z,74.50
2019-06-08T02:00:31.671Z,74.40
2019-06-08T02:02:57.568Z,74.40
2019-06-08T02:05:28.110Z,74.80
2019-06-08T02:07:57.838Z,74.70
2019-06-08T02:10:28.684Z,74.40
2019-06-08T02:12:58.394Z,74.60
2019-06-08T02:15:29.033Z,74.60
2019-06-08T02:17:58.572Z,74.20
2019-06-08T02:20:28.750Z,74.70
2019-06-08T02:22:58.451Z,74.50
2019-06-08T02:25:35.530Z,74.90
2019-06-08T02:28:05.142Z,74.40
2019-06-08T02:30:38.126Z,74.60
2019-06-08T02:33:05.967Z,74.70
2019-06-08T02:35:37.635Z,75.10
2019-06-08T02:38:06.636Z,75.00
2019-06-08T02:40:36.913Z,74.80
2019-06-08T02:43:06.557Z,74.90
2019-06-08T02:45:36.958Z,75.60
2019-06-08T02:48:07.337Z,75.40
2019-06-08T02:50:51.880Z,75.40
2019-06-08T02:53:21.965Z,75.60
2019-06-08T02:55:52.164Z,75.60
2019-06-08T02:58:22.633Z,75.70
2019-06-08T03:00:54.112Z,75.80
2019-06-08T03:03:23.696Z,75.80
2019-06-08T03:06:05.603Z,75.90
2019-06-08T03:08:39.088Z,76.00
2019-06-08T03:11:09.172Z,76.00
2019-06-08T03:13:42.466Z,76.40
2019-06-08T03:16:11.929Z,76.40
2019-06-08T03:18:42.543Z,76.70
2019-06-08T03:21:12.234Z,76.60
2019-06-08T03:23:43.454Z,76.80
2019-06-08T03:26:12.856Z,76.60
2019-06-08T03:28:44.245Z,76.80
2019-06-08T03:31:13.362Z,76.90
2019-06-08T03:33:56.493Z,76.70
2019-06-08T03:36:25.678Z,76.80
2019-06-08T03:38:55.157Z,76.90
2019-06-08T03:41:24.600Z,77.00
2019-06-08T03:43:54.113Z,77.20
2019-06-08T03:46:23.572Z,77.40
2019-06-08T03:48:54.078Z,77.00
2019-06-08T03:51:24.596Z,77.00
2019-06-08T03:53:54.038Z,76.80
2019-06-08T03:56:23.490Z,77.20
2019-06-08T03:58:52.924Z,77.40
2019-06-08T04:01:22.347Z,77.30
2019-06-08T04:03:51.826Z,77.40
2019-06-08T04:06:21.341Z,77.60
2019-06-08T04:09:03.129Z,77.90
2019-06-08T04:11:46.765Z,77.80
2019-06-08T04:14:16.438Z,77.70
2019-06-08T04:16:46.764Z,77.50
2019-06-08T04:19:16.422Z,77.50
2019-06-08T04:21:46.292Z,77.80
2019-06-08T04:24:15.954Z,77.90
2019-06-08T04:26:47.203Z,77.70
2019-06-08T04:29:16.753Z,78.00
2019-06-08T04:32:05.538Z,77.90
2019-06-08T04:34:35.000Z,78.00
2019-06-08T04:37:04.496Z,78.20
2019-06-08T04:39:34.032Z,78.20
2019-06-08T04:42:03.475Z,78.20
2019-06-08T04:44:32.912Z,78.30
2019-06-08T04:47:02.368Z,78.30
2019-06-08T04:49:31.815Z,78.70
2019-06-08T04:52:01.348Z,79.00
2019-06-08T04:54:30.913Z,78.60
2019-06-08T04:57:00.373Z,79.80
2019-06-08T04:59:29.887Z,80.40
2019-06-08T05:01:59.347Z,80.90
2019-06-08T05:04:28.776Z,80.70
2019-06-08T05:06:59.301Z,81.10
2019-06-08T05:09:28.766Z,81.40
2019-06-08T05:11:58.363Z,82.30
2019-06-08T05:14:33.665Z,82.50
2019-06-08T05:17:03.117Z,83.00
2019-06-08T05:19:32.980Z,83.80
2019-06-08T05:22:02.729Z,84.60
2019-06-08T05:24:32.167Z,84.00
2019-06-08T05:27:01.633Z,84.80
2019-06-08T05:29:32.348Z,85.20
2019-06-08T05:32:01.815Z,86.30
2019-06-08T05:34:34.900Z,87.20
2019-06-08T05:37:04.508Z,87.60
2019-06-08T05:39:33.984Z,88.20
2019-06-08T05:42:03.482Z,87.90
2019-06-08T05:44:32.929Z,87.90
2019-06-08T05:47:06.065Z,88.00
2019-06-08T05:49:35.477Z,88.20
2019-06-08T05:52:05.099Z,87.70
2019-06-08T05:54:34.562Z,88.30
2019-06-08T05:57:04.068Z,87.20
2019-06-08T05:59:33.604Z,86.80
2019-06-08T06:02:03.155Z,87.20
2019-06-08T06:04:32.672Z,85.80
2019-06-08T06:07:06.085Z,85.40
2019-06-08T06:09:35.708Z,85.40
2019-06-08T06:12:05.778Z,85.50
2019-06-08T06:14:36.948Z,85.70
2019-06-08T06:17:06.530Z,85.50
2019-06-08T06:19:35.989Z,85.10
2019-06-08T06:22:05.707Z,85.10
2019-06-08T06:24:35.221Z,84.40
2019-06-08T06:27:07.378Z,84.30
2019-06-08T06:29:36.842Z,84.00
2019-06-08T06:32:06.431Z,83.80
2019-06-08T06:34:35.891Z,83.70
2019-06-08T06:37:05.352Z,83.50
2019-06-08T06:39:34.829Z,83.40
2019-06-08T06:42:04.353Z,82.90
2019-06-08T06:44:33.747Z,82.90
2019-06-08T06:47:03.222Z,82.90
2019-06-08T06:49:32.671Z,83.20
2019-06-08T06:52:02.123Z,82.70
2019-06-08T06:54:31.588Z,82.20
2019-06-08T06:57:01.071Z,81.60
2019-06-08T06:59:30.478Z,81.30
2019-06-08T07:02:00.516Z,80.00
2019-06-08T07:04:30.089Z,79.40
2019-06-08T07:06:59.542Z,78.20
2019-06-08T07:09:29.244Z,77.50
2019-06-08T07:11:58.707Z,77.40
2019-06-08T07:14:28.181Z,77.80
2019-06-08T07:16:58.263Z,78.70
2019-06-08T07:19:27.772Z,79.10
2019-06-08T07:21:58.528Z,78.10
2019-06-08T07:24:28.056Z,77.90
2019-06-08T07:26:58.751Z,78.10
2019-06-08T07:29:28.282Z,78.40
2019-06-08T07:31:59.227Z,78.60
2019-06-08T07:34:28.867Z,78.10
2019-06-08T07:36:59.545Z,77.60
2019-06-08T07:39:29.156Z,77.80
2019-06-08T07:41:59.946Z,77.80
2019-06-08T07:44:29.513Z,77.50
2019-06-08T07:47:00.142Z,76.90
2019-06-08T07:49:29.596Z,76.40
2019-06-08T07:52:09.781Z,75.90
2019-06-08T07:54:50.853Z,75.70
2019-06-08T07:57:21.377Z,74.90
2019-06-08T07:59:52.748Z,74.10
2019-06-08T08:02:23.007Z,73.80
2019-06-08T08:05:12.311Z,73.30
2019-06-08T08:07:41.715Z,73.70
2019-06-08T08:10:11.534Z,74.60
2019-06-08T08:12:40.995Z,75.20
2019-06-08T08:15:11.060Z,75.50
2019-06-08T08:17:40.481Z,75.70
2019-06-08T08:20:10.382Z,75.60
2019-06-08T08:22:39.890Z,75.70
2019-06-08T08:25:10.405Z,75.70
2019-06-08T08:27:39.837Z,75.70
2019-06-08T08:30:11.450Z,75.40
2019-06-08T08:32:40.892Z,74.80
2019-06-08T08:35:10.470Z,73.60
2019-06-08T08:37:40.000Z,72.50
2019-06-08T08:40:09.574Z,71.00
2019-06-08T08:42:39.108Z,69.20
2019-06-08T08:45:09.175Z,68.20
2019-06-08T08:47:38.982Z,66.90
2019-06-08T08:50:09.189Z,66.20
2019-06-08T08:52:40.978Z,66.30
2019-06-08T08:55:10.217Z,67.30
2019-06-08T08:57:41.599Z,68.50
2019-06-08T09:00:11.394Z,68.80
2019-06-08T09:02:40.839Z,68.60
2019-06-08T09:05:10.641Z,68.20
2019-06-08T09:07:40.082Z,68.80
2019-06-08T09:10:11.771Z,69.00
2019-06-08T09:12:41.294Z,69.20
2019-06-08T09:15:11.781Z,69.20
2019-06-08T09:17:41.318Z,69.50
2019-06-08T09:20:15.348Z,70.60
2019-06-08T09:22:56.541Z,71.70
2019-06-08T09:25:19.632Z,71.70
2019-06-08T09:27:49.062Z,71.30
2019-06-08T09:30:38.543Z,71.70
2019-06-08T09:33:08.190Z,72.60
2019-06-08T09:35:37.926Z,72.90
2019-06-08T09:38:13.931Z,72.50
2019-06-08T09:40:43.457Z,73.50
2019-06-08T09:43:13.384Z,73.60
2019-06-08T09:45:44.141Z,74.60
2019-06-08T09:48:13.587Z,75.30
2019-06-08T09:50:43.090Z,75.20
2019-06-08T09:53:23.762Z,75.60
2019-06-08T09:55:43.643Z,76.10
2019-06-08T09:58:14.334Z,75.10
2019-06-08T10:00:44.003Z,73.20
2019-06-08T10:03:13.574Z,71.40
2019-06-08T10:05:43.016Z,70.40
2019-06-08T10:08:12.491Z,69.70
2019-06-08T10:10:44.986Z,68.60
2019-06-08T10:13:14.880Z,67.80
2019-06-08T10:15:45.458Z,68.00
2019-06-08T10:18:17.513Z,68.10
2019-06-08T10:20:48.040Z,67.10
2019-06-08T10:23:30.672Z,67.10
2019-06-08T10:25:58.252Z,67.20
2019-06-08T10:28:28.956Z,66.70
2019-06-08T10:31:00.025Z,65.90
2019-06-08T10:33:29.193Z,67.20
2019-06-08T10:36:12.264Z,67.90
2019-06-08T10:38:41.217Z,69.00
2019-06-08T10:41:20.892Z,69.60
2019-06-08T10:43:57.187Z,70.50
2019-06-08T10:46:27.674Z,71.80
2019-06-08T10:49:01.981Z,71.90
2019-06-08T10:51:31.535Z,72.90
2019-06-08T10:54:07.040Z,72.50
2019-06-08T10:56:38.398Z,71.60
2019-06-08T10:59:10.475Z,69.40
2019-06-08T11:01:38.616Z,69.50
2019-06-08T11:04:09.278Z,69.20
2019-06-08T11:06:40.403Z,69.40
2019-06-08T11:09:13.215Z,70.00
2019-06-08T11:11:41.273Z,68.60
2019-06-08T11:14:12.934Z,65.40
2019-06-08T11:16:41.961Z,63.90
2019-06-08T11:19:13.468Z,62.30
2019-06-08T11:22:00.505Z,62.60
2019-06-08T11:24:28.804Z,62.80
2019-06-08T11:26:57.738Z,66.80
2019-06-08T11:29:30.783Z,69.70
2019-06-08T11:32:01.932Z,69.70
2019-06-08T11:34:31.567Z,69.80
2019-06-08T11:37:01.966Z,69.50
2019-06-08T11:39:32.214Z,69.40
2019-06-08T11:42:02.311Z,70.90
2019-06-08T11:44:31.772Z,70.40
2019-06-08T11:47:02.403Z,69.70
2019-06-08T11:49:31.978Z,68.00
2019-06-08T11:52:13.829Z,67.90
2019-06-08T11:54:44.266Z,67.40
2019-06-08T11:57:13.867Z,66.30
2019-06-08T11:59:43.381Z,64.50
2019-06-08T12:02:14.216Z,63.70
2019-06-08T12:04:43.938Z,63.30
2019-06-08T12:07:13.981Z,63.20
2019-06-08T12:09:52.673Z,63.20
2019-06-08T12:12:22.048Z,70.70
2019-06-08T12:14:51.488Z,73.60
2019-06-08T12:17:22.541Z,78.30
2019-06-08T12:19:53.430Z,81.40
2019-06-08T12:22:22.905Z,84.10
2019-06-08T12:24:52.648Z,85.50
2019-06-08T12:27:29.735Z,86.80
2019-06-08T12:29:53.168Z,84.60
2019-06-08T12:32:22.612Z,82.00
2019-06-08T12:35:00.106Z,78.20
2019-06-08T12:37:29.718Z,77.00
2019-06-08T12:40:01.316Z,76.90
2019-06-08T12:42:30.343Z,71.80
2019-06-08T12:44:59.783Z,71.10
2019-06-08T12:47:29.905Z,70.20
2019-06-08T12:50:00.661Z,71.00
2019-06-08T12:52:30.118Z,73.20
2019-06-08T12:55:06.410Z,73.20
2019-06-08T12:57:30.662Z,74.70
2019-06-08T13:00:00.313Z,75.20
2019-06-08T13:02:29.787Z,75.70
2019-06-08T13:04:59.238Z,75.60
2019-06-08T13:07:28.687Z,75.00
2019-06-08T13:09:58.402Z,74.70
2019-06-08T13:12:29.066Z,74.10
2019-06-08T13:14:58.885Z,73.40
2019-06-08T13:17:28.338Z,72.90
2019-06-08T13:19:58.158Z,72.50
2019-06-08T13:22:30.801Z,70.60
2019-06-08T13:25:14.646Z,69.20
2019-06-08T13:27:35.192Z,65.90
2019-06-08T13:30:07.389Z,64.70
2019-06-08T13:32:48.374Z,60.70
2019-06-08T13:35:20.511Z,57.60
2019-06-08T13:37:49.047Z,53.20
2019-06-08T13:40:21.890Z,53.10
2019-06-08T13:42:51.261Z,53.30
2019-06-08T13:45:23.131Z,54.40
2019-06-08T13:47:52.741Z,52.10
2019-06-08T13:50:23.934Z,51.80
2019-06-08T13:52:53.909Z,53.40
2019-06-08T13:55:42.656Z,52.10
2019-06-08T13:57:55.080Z,51.00
2019-06-08T14:00:44.017Z,51.00
2019-06-08T14:03:13.686Z,50.90
2019-06-08T14:05:43.295Z,49.70
2019-06-08T14:08:26.503Z,49.80
2019-06-08T14:11:08.621Z,48.20
2019-06-08T14:13:38.606Z,48.10
2019-06-08T14:16:16.027Z,47.20
2019-06-08T14:18:45.539Z,46.80
2019-06-08T14:21:14.988Z,46.70
2019-06-08T14:23:44.617Z,45.40
2019-06-08T14:26:14.011Z,44.50
2019-06-08T14:28:43.482Z,44.70
2019-06-08T14:31:12.927Z,44.50
2019-06-08T14:33:42.357Z,45.00
2019-06-08T14:36:11.864Z,45.30
2019-06-08T14:38:42.211Z,48.50
2019-06-08T14:41:11.731Z,53.20
2019-06-08T14:43:41.300Z,55.50
2019-06-08T14:46:11.837Z,57.00
2019-06-08T14:48:44.989Z,58.40
2019-06-08T14:51:12.677Z,59.40
2019-06-08T14:53:42.127Z,55.00
2019-06-08T14:56:11.569Z,50.80
2019-06-08T14:58:41.027Z,47.90
2019-06-08T15:01:10.624Z,44.10
2019-06-08T15:03:40.103Z,42.80
2019-06-08T15:06:33.966Z,42.60
2019-06-08T15:09:01.042Z,42.80
2019-06-08T15:11:34.870Z,41.80
2019-06-08T15:14:08.510Z,40.70
2019-06-08T15:16:38.629Z,41.00
2019-06-08T15:19:09.531Z,40.40
2019-06-08T15:21:38.986Z,40.70
2019-06-08T15:24:08.488Z,41.40
2019-06-08T15:26:42.796Z,40.30
2019-06-08T15:29:09.165Z,40.30
2019-06-08T15:31:39.070Z,42.90
2019-06-08T15:34:10.676Z,43.80
2019-06-08T15:36:39.748Z,45.10
2019-06-08T15:39:09.469Z,48.10
2019-06-08T15:41:38.924Z,47.10
2019-06-08T15:44:08.519Z,45.50
2019-06-08T15:46:41.049Z,47.40
2019-06-08T15:49:12.520Z,48.70
2019-06-08T15:51:42.141Z,50.20
2019-06-08T15:54:11.545Z,49.40
2019-06-08T15:56:48.579Z,48.20
2019-06-08T15:59:12.114Z,45.00
2019-06-08T16:01:41.591Z,42.50
2019-06-08T16:04:11.042Z,41.50
2019-06-08T16:06:40.543Z,40.90
2019-06-08T16:09:09.987Z,42.00
2019-06-08T16:11:39.614Z,44.30
2019-06-08T16:14:09.073Z,48.00
2019-06-08T16:16:38.575Z,50.20
2019-06-08T16:19:08.103Z,51.30
2019-06-08T16:21:37.601Z,52.10
2019-06-08T16:24:07.130Z,52.00
2019-06-08T16:26:49.970Z,52.50
2019-06-08T16:29:07.812Z,53.40
2019-06-08T16:31:37.335Z,54.20
2019-06-08T16:34:06.837Z,53.50
2019-06-08T16:36:36.385Z,53.30
2019-06-08T16:39:08.441Z,53.20
2019-06-08T16:41:37.889Z,52.50
2019-06-08T16:44:08.706Z,52.60
2019-06-08T16:46:38.686Z,53.10
2019-06-08T16:49:08.298Z,53.40
2019-06-08T16:51:37.891Z,53.00
2019-06-08T16:54:07.411Z,53.60
2019-06-08T16:56:36.856Z,54.40
2019-06-08T16:59:06.314Z,53.80
2019-06-08T17:01:36.865Z,54.50
2019-06-08T17:04:09.262Z,54.90
2019-06-08T17:06:39.446Z,55.10
2019-06-08T17:09:15.863Z,54.30
2019-06-08T17:11:46.609Z,54.20
2019-06-08T17:14:17.373Z,54.30
2019-06-08T17:16:46.843Z,54.10
2019-06-08T17:19:16.420Z,53.80
2019-06-08T17:21:46.182Z,53.40
2019-06-08T17:24:15.932Z,53.30
2019-06-08T17:26:45.921Z,53.30
2019-06-08T17:29:15.398Z,53.60
2019-06-08T17:31:44.904Z,54.10
2019-06-08T17:34:14.567Z,54.00
2019-06-08T17:36:44.058Z,54.40
2019-06-08T17:39:13.631Z,54.60
2019-06-08T17:41:43.173Z,54.80
2019-06-08T17:44:13.008Z,54.90
2019-06-08T17:46:43.207Z,55.00
2019-06-08T17:49:12.674Z,55.40
2019-06-08T17:51:44.404Z,55.90
2019-06-08T17:54:13.702Z,56.30
2019-06-08T17:56:43.483Z,56.30
2019-06-08T17:59:13.852Z,56.60
2019-06-08T18:01:46.635Z,56.80
2019-06-08T18:04:17.496Z,57.00
2019-06-08T18:06:47.424Z,57.10
2019-06-08T18:09:18.465Z,57.10
2019-06-08T18:11:48.272Z,57.60
2019-06-08T18:14:18.171Z,57.50
2019-06-08T18:16:49.788Z,57.60
2019-06-08T18:19:25.191Z,58.10
2019-06-08T18:22:02.807Z,58.50
2019-06-08T18:24:28.027Z,58.80
2019-06-08T18:26:58.820Z,59.20
2019-06-08T18:29:28.450Z,59.00
2019-06-08T18:31:58.448Z,59.20
2019-06-08T18:34:28.817Z,59.40
2019-06-08T18:36:58.817Z,59.30
2019-06-08T18:39:29.901Z,59.70
2019-06-08T18:41:59.388Z,60.10
2019-06-08T18:44:29.860Z,59.30
2019-06-08T18:46:59.411Z,59.30
2019-06-08T18:49:29.248Z,59.60
2019-06-08T18:51:58.863Z,59.50
2019-06-08T18:54:28.696Z,59.90
2019-06-08T18:56:58.664Z,59.90
2019-06-08T18:59:31.966Z,60.40
2019-06-08T19:02:01.816Z,60.80
2019-06-08T19:04:31.379Z,61.20
2019-06-08T19:07:02.945Z,61.70
2019-06-08T19:09:34.107Z,61.90
2019-06-08T19:12:16.891Z,62.40
2019-06-08T19:14:51.336Z,62.50
2019-06-08T19:17:19.378Z,62.50
2019-06-08T19:19:52.413Z,63.00
2019-06-08T19:22:21.436Z,63.00
2019-06-08T19:24:50.956Z,63.10
2019-06-08T19:27:27.571Z,62.90
2019-06-08T19:29:57.746Z,63.10
2019-06-08T19:32:28.009Z,63.30
2019-06-08T19:34:58.081Z,63.40
2019-06-08T19:37:28.051Z,63.60
2019-06-08T19:39:58.693Z,63.90
2019-06-08T19:42:40.013Z,64.30
2019-06-08T19:45:08.627Z,64.50
2019-06-08T19:47:38.317Z,65.00
2019-06-08T19:50:14.015Z,65.40
2019-06-08T19:52:52.254Z,65.60
2019-06-08T19:55:21.420Z,66.00
2019-06-08T19:57:54.230Z,66.20
2019-06-08T20:00:23.745Z,66.30
2019-06-08T20:02:55.250Z,66.70
2019-06-08T20:05:27.918Z,67.00
2019-06-08T20:07:57.563Z,67.50
2019-06-08T20:10:27.987Z,67.80
2019-06-08T20:13:03.603Z,67.90
2019-06-08T20:15:34.080Z,68.30
2019-06-08T20:18:03.551Z,68.50
2019-06-08T20:20:33.003Z,68.80
2019-06-08T20:23:02.623Z,69.00
2019-06-08T20:25:32.039Z,69.20
2019-06-08T20:28:03.191Z,69.20
2019-06-08T20:30:33.726Z,69.50
2019-06-08T20:33:03.205Z,69.80
2019-06-08T20:35:32.627Z,70.40
2019-06-08T20:38:02.076Z,70.80
2019-06-08T20:40:31.545Z,70.90
2019-06-08T20:43:04.075Z,71.20
2019-06-08T20:45:34.262Z,71.50
2019-06-08T20:48:03.726Z,71.60
2019-06-08T20:50:34.317Z,72.00
2019-06-08T20:53:08.450Z,71.90
2019-06-08T20:55:40.342Z,72.10
2019-06-08T20:58:08.533Z,72.40
2019-06-08T21:00:38.953Z,72.70
2019-06-08T21:03:08.682Z,72.70
2019-06-08T21:05:38.346Z,72.90
2019-06-08T21:08:09.052Z,73.30
2019-06-08T21:10:38.514Z,73.60
2019-06-08T21:13:07.993Z,73.70
2019-06-08T21:15:38.167Z,73.60
2019-06-08T21:18:08.234Z,73.80
2019-06-08T21:20:38.050Z,74.10
2019-06-08T21:23:08.131Z,74.00
2019-06-08T21:25:37.876Z,74.20
2019-06-08T21:28:07.852Z,74.10
2019-06-08T21:30:37.912Z,74.40
2019-06-08T21:33:08.353Z,74.40
2019-06-08T21:35:40.012Z,74.50
2019-06-08T21:38:22.581Z,74.90
2019-06-08T21:40:40.626Z,75.10
2019-06-08T21:43:10.071Z,75.40
2019-06-08T21:45:39.935Z,75.80
2019-06-08T21:48:09.342Z,76.20
2019-06-08T21:50:41.684Z,76.60
2019-06-08T21:53:11.074Z,76.80
2019-06-08T21:55:40.850Z,77.10
2019-06-08T21:58:10.420Z,77.10
2019-06-08T22:00:43.554Z,77.30
2019-06-08T22:03:13.069Z,77.50
2019-06-08T22:05:42.419Z,77.70
2019-06-08T22:08:11.940Z,77.80
2019-06-08T22:10:41.671Z,77.70
2019-06-08T22:13:12.417Z,77.90
2019-06-08T22:15:42.230Z,78.00
2019-06-08T22:18:11.806Z,77.90
2019-06-08T22:20:41.197Z,78.20
2019-06-08T22:23:10.654Z,78.30
2019-06-08T22:25:40.206Z,78.60
2019-06-08T22:28:09.703Z,78.90
2019-06-08T22:30:42.706Z,79.10
2019-06-08T22:33:10.215Z,79.50
2019-06-08T22:35:39.667Z,79.50
2019-06-08T22:38:09.127Z,79.50
2019-06-08T22:40:38.635Z,79.30
2019-06-08T22:43:08.249Z,79.60
2019-06-08T22:45:37.763Z,79.80
2019-06-08T22:48:08.249Z,79.80
2019-06-08T22:50:38.339Z,79.90
2019-06-08T22:53:08.165Z,79.90
2019-06-08T22:55:38.220Z,79.90
2019-06-08T22:58:07.910Z,80.00
2019-06-08T23:00:51.239Z,80.20
2019-06-08T23:03:08.770Z,80.40
2019-06-08T23:05:38.356Z,80.50
2019-06-08T23:08:09.485Z,80.80
2019-06-08T23:10:38.825Z,81.00
2019-06-08T23:13:08.634Z,81.40
2019-06-08T23:15:38.233Z,81.40
2019-06-08T23:18:09.438Z,81.50
2019-06-08T23:20:38.773Z,81.60
2019-06-08T23:23:09.114Z,81.60
2019-06-08T23:25:39.750Z,81.80
2019-06-08T23:28:09.874Z,81.90
2019-06-08T23:30:39.395Z,82.00
2019-06-08T23:33:11.311Z,82.30
2019-06-08T23:36:03.014Z,82.30
2019-06-08T23:38:11.369Z,81.90
2019-06-08T23:40:42.662Z,81.80
2019-06-08T23:43:12.118Z,81.80
2019-06-08T23:45:41.643Z,81.80
2019-06-08T23:48:11.084Z,82.10
2019-06-08T23:50:40.594Z,82.20
2019-06-08T23:53:10.972Z,82.60
2019-06-08T23:55:40.497Z,82.60
2019-06-08T23:58:11.311Z,82.60
